Time;durP1;ratioP1;P1;durP2;ratioP2;P2;SDS_P1;SDS_P2;PMS_P1;PMS_P2;Temp;Humidity;BMP_temperature;BMP_pressure;BME280_temperature;BME280_humidity;BME280_pressure;Samples;Min_cycle;Max_cycle;Signal;HPM_P1;HPM_P2
2023/11/05 00:00:41;;;;;;;9.90;5.50;;;;;;;6.54;79.82;96199.95;224508;1293;22559;-80
2023/11/05 00:05:44;;;;;;;9.20;5.60;;;;;;;6.55;80.03;96210.04;224410;1292;25065;-81
2023/11/05 00:10:54;;;;;;;8.10;4.90;;;;;;;6.57;79.98;96214.73;224533;1292;23184;-81
2023/11/05 00:16:06;;;;;;;7.80;5.40;;;;;;;6.61;80.02;96212.67;224427;1292;23348;-80
2023/11/05 00:21:10;;;;;;;7.60;5.40;;;;;;;6.63;79.86;96218.92;224501;1292;22572;-81
2023/11/05 00:26:13;;;;;;;11.10;5.40;;;;;;;6.65;79.89;96197.98;224526;1289;25258;-81
2023/11/05 00:31:17;;;;;;;8.80;5.20;;;;;;;6.67;79.86;96181.66;224220;1293;24249;-82
2023/11/05 00:36:19;;;;;;;9.90;6.50;;;;;;;6.67;79.84;96167.65;224169;1292;22755;-80
2023/11/05 00:41:33;;;;;;;7.70;4.90;;;;;;;6.65;79.73;96151.71;224423;1287;22573;-81
2023/11/05 00:46:37;;;;;;;7.40;4.90;;;;;;;6.64;79.83;96144.70;224536;1276;22585;-81
2023/11/05 00:51:39;;;;;;;8.40;4.90;;;;;;;6.63;79.66;96143.30;224492;1288;25580;-80
2023/11/05 00:56:41;;;;;;;9.20;5.50;;;;;;;6.61;80.11;96138.33;224480;1292;22559;-81
2023/11/05 01:01:44;;;;;;;7.80;4.90;;;;;;;6.58;80.14;96143.81;224427;1292;22578;-81
2023/11/05 01:06:47;;;;;;;8.10;5.00;;;;;;;6.55;80.32;96138.29;224447;1292;22540;-81
2023/11/05 01:11:50;;;;;;;10.10;4.70;;;;;;;6.53;80.13;96131.16;224411;1289;22573;-79
2023/11/05 01:16:53;;;;;;;9.50;5.10;;;;;;;6.50;80.03;96139.38;224446;1292;22577;-80
2023/11/05 01:21:55;;;;;;;10.90;5.20;;;;;;;6.50;80.09;96142.75;224431;1292;22563;-80
2023/11/05 01:26:58;;;;;;;9.20;5.20;;;;;;;6.49;80.31;96137.84;224444;1292;22567;-80
2023/11/05 01:32:01;;;;;;;11.10;5.90;;;;;;;6.49;80.10;96129.13;224503;1289;22600;-80
2023/11/05 01:37:13;;;;;;;9.20;5.80;;;;;;;6.52;80.19;96122.96;224533;1289;22562;-80
2023/11/05 01:42:19;;;;;;;9.70;6.80;;;;;;;6.52;80.56;96118.14;224439;1292;24247;-80
2023/11/05 01:47:22;;;;;;;10.40;6.80;;;;;;;6.55;80.42;96117.77;222219;1292;3046295;-80
2023/11/05 01:52:26;;;;;;;10.40;6.80;;;;;;;6.54;80.39;96127.77;224428;1292;22558;-79
2023/11/05 01:57:30;;;;;;;14.10;7.90;;;;;;;6.52;80.61;96135.04;224443;1292;22632;-79
2023/11/05 02:02:56;;;;;;;11.40;7.40;;;;;;;6.52;80.49;96131.88;224252;1293;22593;-80
2023/11/05 02:08:00;;;;;;;12.30;7.10;;;;;;;6.55;80.42;96122.33;224464;1292;22585;-80
2023/11/05 02:13:03;;;;;;;10.40;6.70;;;;;;;6.60;80.89;96110.70;224456;1292;22598;-80
2023/11/05 02:18:08;;;;;;;10.90;6.70;;;;;;;6.65;80.74;96109.00;224483;1293;22567;-80
2023/11/05 02:23:20;;;;;;;13.40;7.60;;;;;;;6.69;80.73;96116.21;224449;1292;22555;-80
2023/11/05 02:28:23;;;;;;;12.30;7.30;;;;;;;6.75;81.17;96137.07;224525;1292;22572;-80
2023/11/05 02:33:29;;;;;;;8.60;6.00;;;;;;;6.84;81.45;96153.84;224564;1289;22580;-80
2023/11/05 02:38:32;;;;;;;9.90;6.90;;;;;;;6.90;81.13;96166.16;224473;1291;25470;-80
2023/11/05 02:43:35;;;;;;;10.20;6.90;;;;;;;6.96;81.02;96171.18;224197;1292;22558;-79
2023/11/05 02:48:37;;;;;;;10.50;6.80;;;;;;;7.02;81.09;96170.58;224526;1289;22574;-80
2023/11/05 02:53:40;;;;;;;11.10;6.30;;;;;;;7.06;81.26;96146.00;224452;1291;22562;-79
2023/11/05 02:58:42;;;;;;;9.10;6.10;;;;;;;7.08;81.20;96122.88;224415;1291;22575;-80
2023/11/05 03:03:44;;;;;;;8.90;6.10;;;;;;;7.09;81.17;96080.89;224479;1292;23280;-80
2023/11/05 03:08:47;;;;;;;9.10;6.40;;;;;;;7.08;81.17;96076.79;224513;1289;22566;-80
2023/11/05 03:13:50;;;;;;;9.70;7.00;;;;;;;7.06;81.50;96101.61;224527;1289;22567;-80
2023/11/05 03:18:54;;;;;;;14.50;8.30;;;;;;;7.00;81.83;96092.08;224402;1293;22560;-80
2023/11/05 03:23:58;;;;;;;12.10;7.80;;;;;;;6.95;81.90;96087.34;224440;1286;22697;-80
2023/11/05 03:29:00;;;;;;;10.60;7.70;;;;;;;6.92;81.96;96080.98;224148;1292;22559;-80
2023/11/05 03:34:05;;;;;;;12.00;7.80;;;;;;;6.89;82.16;96095.39;224404;1292;22583;-80
2023/11/05 03:39:08;;;;;;;11.00;6.80;;;;;;;6.86;82.31;96100.39;224443;1289;22602;-80
2023/11/05 03:44:11;;;;;;;9.90;6.80;;;;;;;6.87;82.30;96111.66;224551;1286;25268;-80
2023/11/05 03:49:13;;;;;;;9.70;6.70;;;;;;;6.92;82.56;96115.29;224494;1293;25912;-80
2023/11/05 03:54:18;;;;;;;10.20;6.90;;;;;;;6.99;82.87;96106.23;224453;1292;22588;-79
2023/11/05 03:59:24;;;;;;;9.10;5.90;;;;;;;7.04;82.82;96091.87;224316;1293;22916;-79
2023/11/05 04:04:27;;;;;;;11.70;6.70;;;;;;;7.08;82.97;96091.00;224409;1292;22561;-79
2023/11/05 04:09:30;;;;;;;18.10;11.00;;;;;;;7.12;83.45;96088.02;224266;1292;22679;-79
2023/11/05 04:14:41;;;;;;;16.40;11.10;;;;;;;7.15;83.57;96090.08;224457;1292;22642;-79
2023/11/05 04:19:44;;;;;;;12.70;9.20;;;;;;;7.20;83.26;96091.04;224510;1289;22580;-79
2023/11/05 04:24:46;;;;;;;14.30;9.80;;;;;;;7.24;83.50;96094.27;224500;1289;22557;-79
2023/11/05 04:29:49;;;;;;;15.30;11.10;;;;;;;7.29;83.61;96089.83;224363;1292;22491;-80
2023/11/05 04:34:52;;;;;;;14.70;9.80;;;;;;;7.31;83.84;96075.17;224515;1292;25251;-79
2023/11/05 04:39:59;;;;;;;10.60;6.70;;;;;;;7.31;83.84;96060.83;224416;1293;22560;-80
2023/11/05 04:45:05;;;;;;;8.00;6.10;;;;;;;7.27;83.56;96042.70;224242;1290;22591;-79
2023/11/05 04:50:09;;;;;;;11.60;7.10;;;;;;;7.19;83.47;96023.95;224186;1292;22571;-79
2023/11/05 04:55:12;;;;;;;10.60;7.20;;;;;;;7.13;83.78;96028.77;224170;1292;22660;-79
2023/11/05 05:00:16;;;;;;;12.50;7.60;;;;;;;7.07;83.45;96032.91;224434;1292;22552;-79
2023/11/05 05:05:18;;;;;;;15.00;7.80;;;;;;;7.00;83.76;96028.35;224326;1293;22570;-79
2023/11/05 05:10:31;;;;;;;12.40;8.20;;;;;;;6.97;83.84;96017.17;224162;1293;22631;-78
2023/11/05 05:15:34;;;;;;;12.60;8.20;;;;;;;6.98;83.93;96015.08;224183;1292;22559;-78
2023/11/05 05:20:37;;;;;;;11.70;8.00;;;;;;;7.04;84.67;96020.92;224500;1292;22611;-78
2023/11/05 05:25:39;;;;;;;11.80;8.50;;;;;;;7.13;84.62;96039.84;224475;1292;22578;-79
2023/11/05 05:31:02;;;;;;;9.10;6.80;;;;;;;7.22;84.92;96048.48;224483;1292;22556;-78
2023/11/05 05:36:08;;;;;;;8.70;5.70;;;;;;;7.29;85.02;96043.77;224547;1289;25365;-79
2023/11/05 05:41:11;;;;;;;9.80;5.20;;;;;;;7.34;85.32;96047.60;224513;1293;22542;-78
2023/11/05 05:46:16;;;;;;;10.00;5.70;;;;;;;7.38;84.90;96065.95;224436;1292;22559;-79
2023/11/05 05:51:23;;;;;;;8.60;6.00;;;;;;;7.37;84.97;96058.81;224426;1289;22562;-79
2023/11/05 05:56:26;;;;;;;9.70;7.20;;;;;;;7.39;85.07;96058.21;224428;1292;22545;-78
2023/11/05 06:01:40;;;;;;;10.70;7.80;;;;;;;7.43;85.37;96061.38;224513;1293;25272;-78
2023/11/05 06:07:13;;;;;;;13.40;8.50;;;;;;;7.49;85.26;96050.08;224366;1293;22563;-79
2023/11/05 06:12:17;;;;;;;12.10;7.60;;;;;;;7.54;85.23;96039.35;224480;1293;22614;-78
2023/11/05 06:17:21;;;;;;;12.60;6.90;;;;;;;7.60;85.78;96036.92;224494;1293;22595;-79
2023/11/05 06:22:24;;;;;;;8.10;5.50;;;;;;;7.67;85.45;96039.32;224429;1292;25258;-79
2023/11/05 06:27:26;;;;;;;7.90;5.50;;;;;;;7.74;85.58;96040.64;224402;1293;22577;-80
2023/11/05 06:32:30;;;;;;;9.20;5.90;;;;;;;7.82;85.55;96033.25;224428;1293;22628;-78
2023/11/05 06:37:33;;;;;;;7.10;5.20;;;;;;;7.87;85.14;96022.08;224486;1283;22563;-78
2023/11/05 06:42:37;;;;;;;5.90;4.50;;;;;;;7.93;85.69;96009.98;224218;1292;22645;-78
2023/11/05 06:47:42;;;;;;;5.00;3.40;;;;;;;7.98;85.53;95995.04;224423;1292;22766;-78
2023/11/05 06:52:48;;;;;;;5.80;3.40;;;;;;;8.04;85.29;95986.95;224473;1292;24339;-79
2023/11/05 06:57:51;;;;;;;10.80;6.60;;;;;;;8.11;85.16;95964.98;224409;1289;22569;-78
2023/11/05 07:02:54;;;;;;;13.40;9.40;;;;;;;8.20;85.40;95952.20;224328;1292;22596;-79
2023/11/05 07:07:56;;;;;;;11.20;6.80;;;;;;;8.25;85.25;95948.71;224302;1288;25233;-78
2023/11/05 07:13:04;;;;;;;13.30;6.30;;;;;;;8.28;84.92;95940.02;224371;1292;25916;-78
2023/11/05 07:18:08;;;;;;;8.50;5.30;;;;;;;8.31;85.24;95943.70;224418;1292;22622;-78
2023/11/05 07:23:14;;;;;;;11.20;6.10;;;;;;;8.35;84.89;95954.02;224448;1292;23315;-78
2023/11/05 07:28:16;;;;;;;9.70;5.50;;;;;;;8.38;85.00;95959.80;224460;1293;22567;-78
2023/11/05 07:33:22;;;;;;;10.30;6.90;;;;;;;8.42;84.97;95962.02;224401;1293;22572;-78
2023/11/05 07:38:26;;;;;;;10.40;7.40;;;;;;;8.48;85.17;95960.55;224420;1292;22634;-79
2023/11/05 07:43:28;;;;;;;7.20;5.80;;;;;;;8.55;85.45;95965.11;224184;1293;22555;-79
2023/11/05 07:48:33;;;;;;;8.10;4.70;;;;;;;8.62;85.12;95974.20;224262;1293;22559;-78
2023/11/05 07:53:36;;;;;;;6.10;4.10;;;;;;;8.70;85.19;95971.52;224467;1289;22601;-79
2023/11/05 07:58:40;;;;;;;4.80;3.10;;;;;;;8.78;84.98;95974.61;224412;1292;22566;-78
2023/11/05 08:03:42;;;;;;;5.00;3.40;;;;;;;8.83;84.79;95976.30;224442;1292;25339;-78
2023/11/05 08:08:46;;;;;;;5.80;3.80;;;;;;;8.87;84.68;95966.57;224414;1288;22562;-77
2023/11/05 08:13:51;;;;;;;5.70;3.80;;;;;;;8.90;84.79;95959.01;224503;1289;22566;-78
2023/11/05 08:18:54;;;;;;;5.00;3.20;;;;;;;8.92;85.07;95963.39;224399;1292;22562;-78
2023/11/05 08:23:57;;;;;;;4.60;3.10;;;;;;;8.95;85.08;95958.63;224384;1293;22595;-80
2023/11/05 08:29:02;;;;;;;4.10;3.20;;;;;;;8.97;85.26;95953.13;224371;1292;24357;-79
2023/11/05 08:34:05;;;;;;;4.90;3.40;;;;;;;9.00;85.37;95947.43;224432;1292;22685;-78
2023/11/05 08:39:08;;;;;;;5.40;3.10;;;;;;;9.02;85.20;95938.60;224353;1292;22543;-78
2023/11/05 08:44:11;;;;;;;4.80;2.90;;;;;;;9.08;85.70;95934.21;224345;1293;22561;-78
2023/11/05 08:49:14;;;;;;;5.60;2.80;;;;;;;9.12;85.74;95934.86;224335;1293;22543;-78
2023/11/05 08:54:16;;;;;;;4.00;3.00;;;;;;;9.17;85.78;95932.70;224181;1292;22551;-78
2023/11/05 08:59:20;;;;;;;5.00;3.00;;;;;;;9.20;85.97;95936.88;224373;1293;22572;-78
2023/11/05 09:04:23;;;;;;;4.20;3.30;;;;;;;9.22;86.25;95937.52;224474;1289;22547;-78
2023/11/05 09:09:25;;;;;;;4.60;2.90;;;;;;;9.26;86.04;95939.35;223988;1292;22566;-78
2023/11/05 09:14:28;;;;;;;4.90;2.80;;;;;;;9.30;86.42;95939.14;224422;1293;22566;-78
2023/11/05 09:19:29;;;;;;;3.40;2.30;;;;;;;9.35;86.57;95931.15;224161;1292;22587;-78
2023/11/05 09:24:32;;;;;;;3.80;2.50;;;;;;;9.37;86.73;95928.13;224481;1290;24202;-78
2023/11/05 09:29:34;;;;;;;4.70;2.80;;;;;;;9.42;86.58;95924.85;224444;1290;23536;-77
2023/11/05 09:34:36;;;;;;;4.40;2.80;;;;;;;9.49;86.90;95924.13;224173;1292;25934;-78
2023/11/05 09:39:39;;;;;;;3.50;2.50;;;;;;;9.56;86.98;95918.70;224501;1292;22558;-78
2023/11/05 09:44:45;;;;;;;3.50;2.20;;;;;;;9.59;86.90;95906.98;224524;1293;22572;-79
2023/11/05 09:49:47;;;;;;;3.00;2.00;;;;;;;9.66;87.02;95906.73;224433;1293;22574;-79
2023/11/05 09:54:51;;;;;;;2.90;2.20;;;;;;;9.74;87.14;95882.93;224554;1289;22680;-78
2023/11/05 09:59:53;;;;;;;3.10;2.00;;;;;;;9.82;87.22;95884.55;224294;1292;22570;-78
2023/11/05 10:04:56;;;;;;;3.60;2.50;;;;;;;9.88;86.94;95878.48;224120;1292;22580;-77
2023/11/05 10:09:59;;;;;;;3.80;2.50;;;;;;;9.96;86.97;95877.58;224439;1286;22641;-78
2023/11/05 10:15:03;;;;;;;4.60;2.70;;;;;;;10.04;86.78;95874.20;224491;1292;22574;-77
2023/11/05 10:20:06;;;;;;;3.40;2.60;;;;;;;10.14;86.98;95881.61;224350;1292;25216;-78
2023/11/05 10:25:24;;;;;;;7.80;4.30;;;;;;;10.22;86.65;95875.11;224236;1292;23661;-78
2023/11/05 10:30:30;;;;;;;6.70;4.40;;;;;;;10.35;86.87;95858.27;224507;1292;22702;-78
2023/11/05 10:35:35;;;;;;;6.70;4.10;;;;;;;10.48;86.76;95860.12;224494;1290;22676;-78
2023/11/05 10:40:38;;;;;;;5.70;4.00;;;;;;;10.55;86.67;95848.25;224428;1292;22558;-78
2023/11/05 10:45:41;;;;;;;4.90;3.40;;;;;;;10.58;86.45;95836.23;224444;1292;22619;-77
2023/11/05 10:50:48;;;;;;;6.70;4.30;;;;;;;10.62;86.31;95815.12;224385;1292;22587;-77
2023/11/05 10:55:51;;;;;;;7.70;4.70;;;;;;;10.66;86.26;95807.21;224513;1289;22565;-77
2023/11/05 11:00:57;;;;;;;8.20;6.10;;;;;;;10.70;86.27;95798.28;224330;1292;22559;-78
2023/11/05 11:06:02;;;;;;;9.50;7.90;;;;;;;10.79;86.16;95794.61;224265;1292;22559;-80
2023/11/05 11:11:16;;;;;;;9.70;6.80;;;;;;;10.89;86.09;95787.85;224392;1292;22570;-78
2023/11/05 11:16:44;;;;;;;8.70;7.00;;;;;;;10.95;85.81;95783.10;224493;1292;22731;-78
2023/11/05 11:21:57;;;;;;;10.90;7.10;;;;;;;11.09;85.77;95780.40;224393;1292;22581;-78
2023/11/05 11:27:06;;;;;;;9.10;6.50;;;;;;;11.23;85.71;95784.67;224481;1286;22589;-77
2023/11/05 11:32:09;;;;;;;10.70;6.80;;;;;;;11.41;85.66;95794.27;224340;1292;22633;-78
2023/11/05 11:37:16;;;;;;;9.20;5.90;;;;;;;11.55;85.38;95815.46;224365;1288;22581;-79
2023/11/05 11:42:18;;;;;;;6.20;4.70;;;;;;;11.67;85.19;95831.64;224400;1292;22565;-78
2023/11/05 11:47:24;;;;;;;6.70;4.80;;;;;;;11.67;84.66;95829.41;224385;1292;22606;-79
2023/11/05 11:52:32;;;;;;;8.40;4.40;;;;;;;11.63;84.59;95835.98;224384;1292;22566;-78
2023/11/05 11:57:38;;;;;;;7.10;3.90;;;;;;;11.57;84.52;95828.31;224478;1289;24250;-78
2023/11/05 12:02:42;;;;;;;4.60;3.00;;;;;;;11.52;84.40;95820.13;224215;1292;22593;-79
2023/11/05 12:07:49;;;;;;;3.80;2.50;;;;;;;11.46;84.03;95823.88;224427;1288;22681;-79
2023/11/05 12:12:54;;;;;;;3.20;2.30;;;;;;;11.43;83.92;95827.59;224420;1292;22597;-78
2023/11/05 12:17:58;;;;;;;4.50;2.40;;;;;;;11.35;83.74;95832.04;224263;1292;23072;-78
2023/11/05 12:23:00;;;;;;;4.50;3.10;;;;;;;11.29;83.88;95832.08;224501;1292;23455;-77
2023/11/05 12:28:54;;;;;;;;;;;;;;;;;;;;;
2023/11/05 12:33:59;;;;;;;5.60;3.70;;;;;;;11.14;83.71;95830.17;224152;1292;22679;-77
2023/11/05 12:39:03;;;;;;;7.60;4.40;;;;;;;11.09;83.70;95833.20;224308;1292;22566;-78
2023/11/05 12:44:17;;;;;;;6.90;4.10;;;;;;;11.12;84.02;95827.97;224489;1290;22549;-78
2023/11/05 12:49:20;;;;;;;6.40;4.30;;;;;;;11.26;84.28;95817.50;224397;1292;25286;-79
2023/11/05 12:54:26;;;;;;;7.80;4.70;;;;;;;11.43;84.29;95813.00;224424;1291;22574;-78
2023/11/05 12:59:28;;;;;;;6.80;4.20;;;;;;;11.52;83.73;95821.45;224120;1289;25543;-78
2023/11/05 13:04:56;;;;;;;6.90;3.80;;;;;;;11.60;83.68;95830.69;224458;1286;22594;-79
2023/11/05 13:09:58;;;;;;;6.60;4.10;;;;;;;11.63;83.62;95828.30;224514;1286;22588;-78
2023/11/05 13:15:09;;;;;;;5.70;3.50;;;;;;;11.69;83.62;95837.02;224387;1269;22562;-78
2023/11/05 13:20:12;;;;;;;5.80;3.40;;;;;;;11.83;83.49;95831.42;224398;1292;24952;-79
2023/11/05 13:25:17;;;;;;;6.00;4.10;;;;;;;12.02;83.58;95832.85;224397;1292;22588;-78
2023/11/05 13:30:22;;;;;;;6.10;4.10;;;;;;;12.12;83.11;95816.42;224394;1293;25261;-78
2023/11/05 13:35:25;;;;;;;8.70;4.40;;;;;;;12.11;82.93;95814.95;224490;1285;25322;-78
2023/11/05 13:40:28;;;;;;;8.40;4.60;;;;;;;12.02;82.54;95831.58;224444;1292;22556;-78
2023/11/05 13:45:53;;;;;;;7.80;5.40;;;;;;;11.91;82.42;95838.33;224262;1292;347994;-79
2023/11/05 13:50:56;;;;;;;7.70;5.40;;;;;;;11.74;82.24;95858.45;224549;1289;24292;-79
2023/11/05 13:55:59;;;;;;;6.40;4.60;;;;;;;11.56;82.43;95876.07;224471;1286;22574;-80
2023/11/05 14:01:01;;;;;;;7.30;5.40;;;;;;;11.35;82.57;95882.73;224259;1292;22563;-79
2023/11/05 14:06:05;;;;;;;7.10;4.70;;;;;;;11.13;82.63;95900.89;224409;1292;24205;-79
2023/11/05 14:11:07;;;;;;;6.90;4.90;;;;;;;10.98;83.21;95910.54;224319;1292;22555;-78
2023/11/05 14:16:30;;;;;;;6.90;4.60;;;;;;;10.86;83.48;95906.48;224495;1292;22550;-79
2023/11/05 14:21:44;;;;;;;7.50;4.90;;;;;;;10.77;83.67;95913.59;224519;1292;22562;-79
2023/11/05 14:27:07;;;;;;;6.50;4.50;;;;;;;10.63;83.75;95929.45;224394;1292;22663;-79
2023/11/05 14:32:12;;;;;;;6.60;4.20;;;;;;;10.54;84.09;95942.23;224371;1293;22581;-79
2023/11/05 14:37:16;;;;;;;7.10;4.70;;;;;;;10.44;84.25;95951.41;224491;1282;24261;-79
2023/11/05 14:42:23;;;;;;;7.40;4.50;;;;;;;10.32;84.39;95946.14;224475;1292;22682;-78
2023/11/05 14:47:26;;;;;;;6.70;4.30;;;;;;;10.27;84.74;95937.29;224552;1289;22589;-79
2023/11/05 14:52:29;;;;;;;5.00;3.70;;;;;;;10.25;84.87;95925.45;224366;1292;22591;-79
2023/11/05 14:57:36;;;;;;;5.10;3.40;;;;;;;10.25;84.89;95927.46;224363;1292;22679;-79
2023/11/05 15:02:50;;;;;;;6.10;4.00;;;;;;;10.21;84.88;95933.42;224511;1290;22707;-79
2023/11/05 15:07:53;;;;;;;8.80;4.50;;;;;;;10.14;84.76;95943.52;224494;1292;22685;-79
2023/11/05 15:12:55;;;;;;;6.80;4.50;;;;;;;10.06;85.05;95942.48;224375;1289;22638;-79
2023/11/05 15:17:59;;;;;;;4.70;3.30;;;;;;;9.96;85.40;95945.98;224359;1292;22681;-79
2023/11/05 15:23:03;;;;;;;6.80;3.50;;;;;;;9.91;85.45;95951.13;224528;1283;22588;-78
2023/11/05 15:28:05;;;;;;;4.60;3.10;;;;;;;9.88;85.45;95963.41;224488;1286;22589;-79
2023/11/05 15:33:10;;;;;;;4.70;3.30;;;;;;;9.87;85.58;95973.77;224377;1292;23359;-79
2023/11/05 15:38:37;;;;;;;5.10;3.20;;;;;;;9.88;85.63;95977.48;224418;1292;22575;-79
2023/11/05 15:43:40;;;;;;;5.80;3.90;;;;;;;9.90;85.56;95986.41;224534;1286;25505;-80
2023/11/05 15:48:44;;;;;;;5.10;3.60;;;;;;;9.92;85.52;95994.77;224422;1292;22587;-81
2023/11/05 15:53:49;;;;;;;3.20;2.40;;;;;;;9.98;85.58;96005.98;224426;1292;23255;-80
2023/11/05 15:58:53;;;;;;;4.20;2.40;;;;;;;10.05;85.49;96013.31;224491;1292;22598;-80
2023/11/05 16:03:56;;;;;;;3.10;2.50;;;;;;;10.11;85.30;96017.73;224370;1292;22570;-79
2023/11/05 16:08:59;;;;;;;3.30;2.40;;;;;;;10.15;85.34;96015.77;224406;1289;22563;-79
2023/11/05 16:14:12;;;;;;;3.00;2.10;;;;;;;10.16;85.27;96012.34;224366;1291;22564;-79
2023/11/05 16:19:17;;;;;;;3.40;2.40;;;;;;;10.18;84.97;96015.01;224470;1293;22559;-79
2023/11/05 16:24:26;;;;;;;3.10;2.30;;;;;;;10.15;84.81;96021.36;224448;1289;22558;-79
2023/11/05 16:29:28;;;;;;;4.30;3.00;;;;;;;10.06;84.80;96016.07;224348;1291;22568;-79
2023/11/05 16:34:35;;;;;;;4.80;3.50;;;;;;;9.97;85.04;96033.34;224338;1289;22587;-79
2023/11/05 16:39:40;;;;;;;5.40;3.60;;;;;;;9.89;84.84;96048.58;224357;1292;22585;-80
2023/11/05 16:44:48;;;;;;;4.00;2.70;;;;;;;9.85;85.34;96057.73;224240;1282;22563;-79
2023/11/05 16:49:54;;;;;;;5.00;2.60;;;;;;;9.85;85.45;96080.03;224372;1292;22559;-79
2023/11/05 16:55:07;;;;;;;2.90;2.10;;;;;;;9.87;85.34;96085.73;224457;1292;22522;-80
2023/11/05 17:00:12;;;;;;;2.60;2.30;;;;;;;9.88;85.46;96100.52;224379;1287;22675;-80
2023/11/05 17:05:15;;;;;;;4.00;2.60;;;;;;;9.89;85.28;96119.26;224476;1292;22558;-79
2023/11/05 17:10:18;;;;;;;3.50;2.30;;;;;;;9.94;85.26;96123.89;224274;1292;22558;-78
2023/11/05 17:15:24;;;;;;;4.10;2.50;;;;;;;10.02;85.22;96122.65;224488;1289;22615;-79
2023/11/05 17:20:58;;;;;;;;;;;;;;;;;;;;;
2023/11/05 17:26:25;;;;;;;4.30;2.80;;;;;;;10.03;84.96;96132.58;224270;1292;22589;-78
2023/11/05 17:31:46;;;;;;;4.80;3.10;;;;;;;9.97;85.17;96130.55;224135;1292;22571;-79
2023/11/05 17:36:49;;;;;;;3.90;3.00;;;;;;;9.96;85.00;96146.52;224455;1292;22565;-78
2023/11/05 17:41:53;;;;;;;4.10;2.90;;;;;;;9.95;85.18;96164.98;224460;1286;22555;-79
2023/11/05 17:46:56;;;;;;;5.80;3.50;;;;;;;9.94;85.28;96185.77;224398;1292;22574;-78
2023/11/05 17:51:58;;;;;;;4.80;3.50;;;;;;;9.95;85.27;96195.95;224293;1292;22678;-79
2023/11/05 17:57:07;;;;;;;4.20;3.50;;;;;;;9.96;85.27;96220.86;224352;1282;22588;-79
2023/11/05 18:02:11;;;;;;;4.30;3.10;;;;;;;9.98;85.34;96215.81;224495;1289;22553;-80
2023/11/05 18:07:13;;;;;;;4.90;2.90;;;;;;;10.00;85.57;96205.66;224380;1291;22567;-80
2023/11/05 18:12:24;;;;;;;4.30;3.20;;;;;;;10.01;85.41;96213.91;224341;1292;22562;-78
2023/11/05 18:17:30;;;;;;;4.40;2.90;;;;;;;9.98;85.42;96221.47;224328;1293;22567;-79
2023/11/05 18:22:38;;;;;;;5.30;2.90;;;;;;;9.95;85.32;96228.14;224462;1273;22555;-80
2023/11/05 18:27:44;;;;;;;;;;;;;;;9.89;85.25;96230.19;224498;1292;22535;-80
2023/11/05 18:32:51;;;;;;;3.80;2.80;;;;;;;9.84;85.58;96227.11;224383;1292;22741;-77
2023/11/05 18:37:57;;;;;;;4.20;2.20;;;;;;;9.81;85.49;96232.60;224493;1289;22585;-79
2023/11/05 18:43:02;;;;;;;3.70;2.40;;;;;;;9.78;85.69;96240.23;224416;1292;22583;-79
2023/11/05 18:48:05;;;;;;;3.40;2.20;;;;;;;9.78;85.79;96232.10;224503;1289;22616;-79
2023/11/05 18:53:08;;;;;;;4.80;2.60;;;;;;;9.75;85.58;96238.77;224283;1292;22596;-79
2023/11/05 18:58:11;;;;;;;5.70;3.20;;;;;;;9.70;85.72;96248.30;224249;1292;22582;-79
2023/11/05 19:03:13;;;;;;;4.80;2.70;;;;;;;9.64;85.65;96259.61;224409;1289;22559;-79
2023/11/05 19:08:18;;;;;;;4.60;2.80;;;;;;;9.60;85.62;96268.15;224270;1273;22562;-77
2023/11/05 19:13:20;;;;;;;4.50;2.80;;;;;;;9.59;85.53;96277.79;224542;1292;22561;-80
2023/11/05 19:18:24;;;;;;;3.90;2.90;;;;;;;9.60;85.38;96280.71;224430;1292;22554;-79
2023/11/05 19:23:27;;;;;;;4.20;2.80;;;;;;;9.61;85.54;96289.48;224425;1289;22651;-80
2023/11/05 19:28:30;;;;;;;3.90;2.40;;;;;;;9.61;85.31;96299.07;224446;1289;22567;-80
2023/11/05 19:33:35;;;;;;;5.10;2.80;;;;;;;9.62;85.07;96312.31;224227;1292;22595;-79
2023/11/05 19:38:37;;;;;;;3.80;2.60;;;;;;;9.63;85.04;96319.14;224399;1292;22583;-79
2023/11/05 19:43:42;;;;;;;4.70;2.60;;;;;;;9.63;85.01;96329.62;224213;1292;22567;-81
2023/11/05 19:48:44;;;;;;;5.30;2.90;;;;;;;9.63;84.72;96348.29;224206;1292;22561;-79
2023/11/05 19:53:48;;;;;;;5.10;2.90;;;;;;;9.66;84.56;96352.59;224219;1292;22590;-79
2023/11/05 19:58:55;;;;;;;5.50;2.70;;;;;;;9.68;84.63;96355.52;224394;1292;24208;-79
2023/11/05 20:04:00;;;;;;;3.60;2.50;;;;;;;9.71;84.43;96367.27;224342;1291;22573;-80
2023/11/05 20:09:02;;;;;;;6.20;2.80;;;;;;;9.77;84.42;96378.97;224452;1292;24229;-79
2023/11/05 20:14:17;;;;;;;5.50;3.00;;;;;;;9.84;84.36;96385.02;224422;1293;22610;-78
2023/11/05 20:19:22;;;;;;;5.20;2.50;;;;;;;9.89;83.95;96393.18;224474;1289;22616;-80
2023/11/05 20:24:25;;;;;;;3.80;2.30;;;;;;;9.93;83.64;96399.92;224174;1292;22590;-80
2023/11/05 20:29:31;;;;;;;4.40;2.50;;;;;;;9.96;83.44;96404.70;224104;1276;22604;-80
2023/11/05 20:34:55;;;;;;;4.30;2.10;;;;;;;9.95;83.27;96417.08;224384;1281;22567;-80
2023/11/05 20:40:01;;;;;;;4.70;2.40;;;;;;;9.98;83.23;96424.73;224443;1283;22569;-80
2023/11/05 20:45:03;;;;;;;4.30;2.30;;;;;;;10.01;82.94;96435.69;224458;1286;22562;-80
2023/11/05 20:50:10;;;;;;;4.50;2.50;;;;;;;10.02;82.74;96449.27;224403;1292;22588;-80
2023/11/05 20:55:16;;;;;;;4.90;2.50;;;;;;;10.05;82.50;96464.84;224490;1292;22543;-79
2023/11/05 21:00:36;;;;;;;3.30;2.20;;;;;;;10.09;82.38;96474.19;224429;1292;22558;-79
2023/11/05 21:05:43;;;;;;;2.70;1.60;;;;;;;10.14;82.18;96479.19;224464;1292;22569;-79
2023/11/05 21:10:45;;;;;;;4.80;1.90;;;;;;;10.18;81.97;96487.23;224422;1292;22547;-80
2023/11/05 21:16:01;;;;;;;2.70;1.70;;;;;;;10.20;81.91;96491.21;224462;1293;22583;-79
2023/11/05 21:21:07;;;;;;;3.60;1.80;;;;;;;10.21;81.69;96498.45;224469;1292;22586;-80
2023/11/05 21:26:09;;;;;;;2.30;1.60;;;;;;;10.22;81.67;96500.00;224442;1289;22592;-79
2023/11/05 21:31:14;;;;;;;2.60;1.80;;;;;;;10.22;81.53;96510.36;224478;1289;22575;-80
2023/11/05 21:36:16;;;;;;;3.70;1.70;;;;;;;10.24;81.64;96515.00;224416;1292;26038;-80
2023/11/05 21:41:22;;;;;;;2.70;1.50;;;;;;;10.25;81.54;96517.65;224460;1292;26633;-80
2023/11/05 21:46:26;;;;;;;2.30;1.30;;;;;;;10.27;81.43;96524.98;224479;1292;22587;-80
2023/11/05 21:51:30;;;;;;;1.80;1.40;;;;;;;10.26;81.05;96539.48;224223;1292;22585;-80
2023/11/05 21:56:33;;;;;;;2.30;1.70;;;;;;;10.24;81.19;96551.80;224480;1292;22587;-80
2023/11/05 22:01:35;;;;;;;1.90;1.20;;;;;;;10.27;80.97;96558.91;224262;1293;22555;-78
2023/11/05 22:06:43;;;;;;;2.90;1.30;;;;;;;10.31;80.93;96566.95;224469;1292;22571;-80
2023/11/05 22:11:52;;;;;;;3.50;1.20;;;;;;;10.32;80.86;96575.31;224474;1289;22679;-81
2023/11/05 22:16:56;;;;;;;2.90;1.20;;;;;;;10.34;80.50;96577.14;224449;1282;22566;-79
2023/11/05 22:22:05;;;;;;;2.00;1.10;;;;;;;10.31;80.38;96577.93;224515;1293;22614;-80
2023/11/05 22:27:17;;;;;;;1.80;1.40;;;;;;;10.25;80.34;96585.02;224454;1292;22594;-79
2023/11/05 22:32:23;;;;;;;1.60;0.90;;;;;;;10.19;80.41;96590.60;224480;1292;22569;-80
2023/11/05 22:37:48;;;;;;;1.90;1.20;;;;;;;10.16;80.32;96589.84;224481;1289;25442;-80
2023/11/05 22:42:54;;;;;;;2.40;1.40;;;;;;;10.11;80.12;96604.80;224464;1293;22572;-80
2023/11/05 22:48:01;;;;;;;3.70;1.70;;;;;;;10.08;80.40;96620.48;224233;1293;22580;-80
2023/11/05 22:53:07;;;;;;;3.30;1.30;;;;;;;10.06;80.60;96632.90;224437;1293;22571;-80
2023/11/05 22:58:22;;;;;;;1.60;1.10;;;;;;;10.03;80.54;96636.08;224194;1292;22563;-79
2023/11/05 23:03:37;;;;;;;1.70;1.10;;;;;;;10.08;80.59;96643.77;224475;1293;22559;-80
2023/11/05 23:08:41;;;;;;;1.60;1.00;;;;;;;10.19;80.50;96655.48;224160;1292;23360;-80
2023/11/05 23:13:44;;;;;;;1.60;1.20;;;;;;;10.26;80.40;96664.14;224130;1292;22588;-80
2023/11/05 23:18:46;;;;;;;1.90;0.90;;;;;;;10.28;80.46;96682.02;224455;1293;22565;-80
2023/11/05 23:23:55;;;;;;;0.80;0.70;;;;;;;10.28;80.33;96680.17;224423;1292;22578;-80
2023/11/05 23:29:09;;;;;;;1.90;0.80;;;;;;;10.26;80.18;96686.21;224469;1293;22547;-80
2023/11/05 23:40:28;;;;;;;1.10;1.00;;;;;;;10.27;80.43;96698.30;224372;1293;22630;-80
2023/11/05 23:46:02;;;;;;;2.00;0.80;;;;;;;10.25;80.50;96704.55;224521;1292;22567;-80
2023/11/05 23:51:05;;;;;;;2.40;0.70;;;;;;;10.21;80.73;96710.84;224485;1289;22559;-79
2023/11/05 23:56:08;;;;;;;0.80;0.70;;;;;;;10.17;81.04;96720.38;224405;1292;22566;-80
